createdAt,value
2023-03-06T00:00:48.142Z,2.94
2023-03-06T00:01:48.156Z,2.95
2023-03-06T00:02:48.204Z,2.95
2023-03-06T00:03:48.306Z,2.95
2023-03-06T00:04:48.284Z,2.95
2023-03-06T00:05:48.412Z,2.93
2023-03-06T00:06:48.352Z,2.93
2023-03-06T00:07:48.388Z,2.93
2023-03-06T00:08:48.431Z,2.92
2023-03-06T00:09:48.474Z,2.89
2023-03-06T00:10:48.514Z,2.9
2023-03-06T00:11:48.557Z,2.93
2023-03-06T00:12:48.589Z,2.94
2023-03-06T00:13:48.634Z,2.93
2023-03-06T00:14:48.662Z,2.89
2023-03-06T00:15:48.933Z,2.88
2023-03-06T00:16:48.747Z,2.88
2023-03-06T00:17:48.772Z,2.9
2023-03-06T00:18:48.816Z,2.88
2023-03-06T00:19:48.860Z,2.86
2023-03-06T00:20:48.894Z,2.87
2023-03-06T00:21:48.923Z,2.85
2023-03-06T00:22:48.965Z,2.87
2023-03-06T00:23:49.003Z,2.84
2023-03-06T00:24:49.027Z,2.85
2023-03-06T00:25:49.070Z,2.89
2023-03-06T00:26:49.122Z,2.9
2023-03-06T00:27:49.146Z,2.88
2023-03-06T00:28:49.170Z,2.9
2023-03-06T00:29:49.241Z,2.87
2023-03-06T00:30:49.244Z,2.88
2023-03-06T00:31:49.372Z,2.87
2023-03-06T00:32:49.312Z,2.86
2023-03-06T00:33:49.353Z,2.85
2023-03-06T00:34:49.385Z,2.84
2023-03-06T00:35:49.456Z,2.82
2023-03-06T00:36:49.443Z,2.8
2023-03-06T00:37:49.486Z,2.78
2023-03-06T00:38:49.512Z,2.8
2023-03-06T00:39:49.553Z,2.83
2023-03-06T00:40:49.582Z,2.83
2023-03-06T00:41:49.624Z,2.83
2023-03-06T00:42:49.657Z,2.85
2023-03-06T00:43:49.672Z,2.85
2023-03-06T00:44:49.714Z,2.79
2023-03-06T00:45:49.786Z,2.77
2023-03-06T00:46:49.785Z,2.83
2023-03-06T00:47:49.821Z,2.84
2023-03-06T00:48:49.866Z,2.86
2023-03-06T00:49:49.899Z,2.82
2023-03-06T00:50:49.930Z,2.82
2023-03-06T00:51:49.970Z,2.83
2023-03-06T00:52:50.018Z,2.84
2023-03-06T00:53:50.070Z,2.84
2023-03-06T00:54:50.087Z,2.84
2023-03-06T00:55:50.116Z,2.84
2023-03-06T00:56:50.152Z,2.86
2023-03-06T00:57:50.199Z,2.84
2023-03-06T00:58:50.234Z,2.84
2023-03-06T00:59:50.267Z,2.85
2023-03-06T01:00:50.336Z,2.82
2023-03-06T01:01:50.374Z,2.83
2023-03-06T01:02:50.369Z,2.85
2023-03-06T01:03:50.411Z,2.84
2023-03-06T01:04:50.454Z,2.86
2023-03-06T01:05:50.488Z,2.87
2023-03-06T01:06:50.510Z,2.86
2023-03-06T01:07:50.571Z,2.87
2023-03-06T01:08:50.591Z,2.86
2023-03-06T01:09:50.654Z,2.88
2023-03-06T01:10:50.664Z,2.88
2023-03-06T01:11:50.706Z,2.86
2023-03-06T01:12:50.735Z,2.86
2023-03-06T01:13:50.777Z,2.86
2023-03-06T01:14:50.838Z,2.86
2023-03-06T01:15:50.856Z,2.87
2023-03-06T01:16:50.868Z,2.89
2023-03-06T01:17:50.911Z,2.89
2023-03-06T01:18:50.942Z,2.89
2023-03-06T01:19:50.978Z,2.89
2023-03-06T01:20:51.014Z,2.89
2023-03-06T01:21:51.054Z,2.89
2023-03-06T01:22:51.101Z,2.86
2023-03-06T01:23:51.127Z,2.84
2023-03-06T01:24:51.148Z,2.87
2023-03-06T01:25:51.190Z,2.86
2023-03-06T01:26:51.225Z,2.87
2023-03-06T01:27:51.266Z,2.87
2023-03-06T01:28:51.290Z,2.87
2023-03-06T01:29:51.338Z,2.87
2023-03-06T01:30:51.379Z,2.86
2023-03-06T01:31:51.440Z,2.87
2023-03-06T01:32:51.439Z,2.86
2023-03-06T01:33:51.477Z,2.87
2023-03-06T01:34:51.517Z,2.87
2023-03-06T01:35:51.653Z,2.87
2023-03-06T01:36:51.630Z,2.87
2023-03-06T01:37:51.637Z,2.87
2023-03-06T01:38:51.711Z,2.88
2023-03-06T01:39:51.734Z,2.88
2023-03-06T01:40:51.774Z,2.87
2023-03-06T01:41:51.815Z,2.88
2023-03-06T01:42:51.869Z,2.88
2023-03-06T01:43:51.883Z,2.87
2023-03-06T01:44:51.922Z,2.84
2023-03-06T01:45:52.019Z,2.84
2023-03-06T01:46:52.024Z,2.84
2023-03-06T01:47:52.034Z,2.84
2023-03-06T01:48:52.072Z,2.84
2023-03-06T01:49:52.124Z,2.84
2023-03-06T01:50:52.142Z,2.84
2023-03-06T01:51:52.214Z,2.84
2023-03-06T01:52:52.214Z,2.88
2023-03-06T01:53:52.260Z,2.89
2023-03-06T01:54:52.293Z,2.89
2023-03-06T01:55:52.326Z,2.89
2023-03-06T01:56:52.375Z,2.88
2023-03-06T01:57:52.391Z,2.89
2023-03-06T01:58:52.435Z,2.87
2023-03-06T01:59:52.466Z,2.88
2023-03-06T02:00:52.582Z,2.89
2023-03-06T02:01:52.549Z,2.89
2023-03-06T02:02:52.575Z,2.91
2023-03-06T02:03:52.604Z,2.9
2023-03-06T02:04:52.635Z,2.9
2023-03-06T02:05:52.668Z,2.91
2023-03-06T02:06:52.704Z,2.91
2023-03-06T02:07:52.749Z,2.91
2023-03-06T02:08:52.784Z,2.91
2023-03-06T02:09:52.844Z,2.92
2023-03-06T02:10:52.858Z,2.93
2023-03-06T02:11:52.892Z,2.97
2023-03-06T02:12:52.950Z,2.98
2023-03-06T02:13:52.957Z,3
2023-03-06T02:14:53.006Z,3
2023-03-06T02:15:53.030Z,3
2023-03-06T02:16:53.085Z,3
2023-03-06T02:17:53.123Z,3
2023-03-06T02:18:53.135Z,3
2023-03-06T02:19:53.181Z,3
2023-03-06T02:20:53.217Z,3
2023-03-06T02:21:53.255Z,3.01
2023-03-06T02:22:53.291Z,3.01
2023-03-06T02:23:53.335Z,3.01
2023-03-06T02:24:53.371Z,2.99
2023-03-06T02:25:53.401Z,3
2023-03-06T02:26:53.431Z,3.02
2023-03-06T02:27:53.462Z,3.03
2023-03-06T02:28:53.501Z,3.03
2023-03-06T02:29:53.540Z,3.05
2023-03-06T02:30:53.627Z,3.05
2023-03-06T02:31:53.599Z,3.05
2023-03-06T02:32:53.636Z,3.03
2023-03-06T02:33:53.671Z,3.05
2023-03-06T02:34:53.742Z,3.04
2023-03-06T02:35:53.803Z,3.06
2023-03-06T02:36:53.796Z,3.06
2023-03-06T02:37:53.849Z,3.06
2023-03-06T02:38:53.855Z,3.06
2023-03-06T02:39:53.908Z,3.06
2023-03-06T02:40:53.940Z,3.06
2023-03-06T02:41:53.976Z,3.05
2023-03-06T02:42:54.027Z,3.05
2023-03-06T02:43:54.080Z,3.05
2023-03-06T02:44:54.095Z,3.05
2023-03-06T02:45:54.217Z,3.06
2023-03-06T02:46:54.160Z,3.06
2023-03-06T02:47:54.209Z,3.11
2023-03-06T02:48:54.246Z,3.11
2023-03-06T02:49:54.283Z,3.11
2023-03-06T02:50:54.301Z,3.11
2023-03-06T02:51:54.352Z,3.11
2023-03-06T02:52:54.372Z,3.11
2023-03-06T02:53:54.411Z,3.13
2023-03-06T02:54:54.451Z,3.12
2023-03-06T02:55:54.512Z,3.13
2023-03-06T02:56:54.521Z,3.13
2023-03-06T02:57:54.558Z,3.13
2023-03-06T02:58:54.604Z,3.12
2023-03-06T02:59:54.631Z,3.12
2023-03-06T03:00:54.693Z,3.13
2023-03-06T03:01:54.712Z,3.13
2023-03-06T03:02:54.741Z,3.14
2023-03-06T03:03:54.766Z,3.16
2023-03-06T03:04:54.905Z,3.16
2023-03-06T03:05:54.839Z,3.16
2023-03-06T03:06:54.876Z,3.15
2023-03-06T03:07:54.931Z,3.15
2023-03-06T03:08:54.946Z,3.18
2023-03-06T03:09:54.992Z,3.18
2023-03-06T03:10:55.019Z,3.18
2023-03-06T03:11:55.055Z,3.17
2023-03-06T03:12:55.091Z,3.17
2023-03-06T03:13:55.142Z,3.17
2023-03-06T03:14:55.154Z,3.17
2023-03-06T03:15:55.279Z,3.17
2023-03-06T03:16:55.229Z,3.17
2023-03-06T03:17:55.269Z,3.19
2023-03-06T03:18:55.329Z,3.2
2023-03-06T03:19:55.378Z,3.22
2023-03-06T03:20:55.410Z,3.22
2023-03-06T03:21:55.418Z,3.21
2023-03-06T03:22:55.475Z,3.21
2023-03-06T03:23:55.512Z,3.21
2023-03-06T03:24:55.602Z,3.2
2023-03-06T03:25:55.598Z,3.21
2023-03-06T03:26:55.603Z,3.2
2023-03-06T03:27:55.653Z,3.2
2023-03-06T03:28:55.670Z,3.2
2023-03-06T03:29:55.713Z,3.2
2023-03-06T03:30:55.791Z,3.2
2023-03-06T03:31:55.784Z,3.2
2023-03-06T03:32:55.818Z,3.22
2023-03-06T03:33:55.842Z,3.23
2023-03-06T03:34:55.886Z,3.25
2023-03-06T03:35:55.963Z,3.24
2023-03-06T03:36:55.951Z,3.24
2023-03-06T03:37:55.980Z,3.24
2023-03-06T03:38:56.017Z,3.24
2023-03-06T03:39:56.049Z,3.24
2023-03-06T03:40:56.090Z,3.23
2023-03-06T03:41:56.154Z,3.24
2023-03-06T03:42:56.172Z,3.24
2023-03-06T03:43:56.202Z,3.23
2023-03-06T03:44:56.239Z,3.25
2023-03-06T03:45:56.264Z,3.23
2023-03-06T03:46:56.303Z,3.25
2023-03-06T03:47:56.339Z,3.25
2023-03-06T03:48:56.374Z,3.24
2023-03-06T03:49:56.428Z,3.24
2023-03-06T03:50:56.441Z,3.27
2023-03-06T03:51:56.477Z,3.28
2023-03-06T03:52:56.519Z,3.28
2023-03-06T03:53:56.549Z,3.28
2023-03-06T03:54:56.580Z,3.28
2023-03-06T03:55:56.614Z,3.28
2023-03-06T03:56:56.647Z,3.28
2023-03-06T03:57:56.689Z,3.28
2023-03-06T03:58:56.725Z,3.28
2023-03-06T03:59:56.745Z,3.29
2023-03-06T04:00:56.786Z,3.26
2023-03-06T04:01:56.857Z,3.26
2023-03-06T04:02:56.848Z,3.27
2023-03-06T04:03:56.891Z,3.24
2023-03-06T04:04:56.960Z,3.23
2023-03-06T04:05:56.952Z,3.2
2023-03-06T04:06:56.984Z,3.17
2023-03-06T04:07:57.112Z,3.17
2023-03-06T04:08:57.111Z,3.15
2023-03-06T04:09:57.129Z,3.16
2023-03-06T04:10:57.184Z,3.16
2023-03-06T04:11:57.178Z,3.16
2023-03-06T04:12:57.208Z,3.16
2023-03-06T04:13:57.268Z,3.16
2023-03-06T04:14:57.274Z,3.13
2023-03-06T04:15:57.381Z,3.13
2023-03-06T04:16:57.346Z,3.13
2023-03-06T04:17:57.398Z,3.11
2023-03-06T04:18:57.426Z,3.11
2023-03-06T04:19:57.464Z,3.11
2023-03-06T04:20:57.502Z,3.12
2023-03-06T04:21:57.545Z,3.12
2023-03-06T04:22:57.567Z,3.12
2023-03-06T04:23:57.612Z,3.12
2023-03-06T04:24:57.647Z,3.12
2023-03-06T04:25:57.692Z,3.12
2023-03-06T04:26:57.737Z,3.11
2023-03-06T04:27:57.776Z,3.06
2023-03-06T04:28:57.791Z,3.08
2023-03-06T04:29:57.814Z,3.06
2023-03-06T04:30:57.885Z,3.06
2023-03-06T04:31:57.910Z,3.06
2023-03-06T04:32:57.977Z,3.08
2023-03-06T04:33:57.989Z,3.09
2023-03-06T04:34:58.016Z,3.06
2023-03-06T04:35:58.097Z,3.07
2023-03-06T04:36:58.094Z,3.07
2023-03-06T04:37:58.141Z,3.06
2023-03-06T04:38:58.178Z,3.07
2023-03-06T04:39:58.221Z,3.07
2023-03-06T04:40:58.240Z,3.07
2023-03-06T04:41:58.286Z,3.08
2023-03-06T04:42:58.311Z,3.07
2023-03-06T04:43:58.353Z,3.07
2023-03-06T04:44:58.412Z,3.07
2023-03-06T04:45:58.516Z,3.07
2023-03-06T04:46:58.474Z,3.07
2023-03-06T04:47:58.538Z,3.06
2023-03-06T04:48:58.555Z,3.06
2023-03-06T04:49:58.597Z,3.08
2023-03-06T04:50:58.629Z,3.07
2023-03-06T04:51:58.660Z,3.04
2023-03-06T04:52:58.710Z,3.03
2023-03-06T04:53:58.761Z,3.03
2023-03-06T04:54:58.773Z,3.03
2023-03-06T04:55:58.802Z,3.03
2023-03-06T04:56:58.854Z,3.03
2023-03-06T04:57:58.917Z,3.03
2023-03-06T04:58:58.933Z,3.03
2023-03-06T04:59:58.949Z,3.03
2023-03-06T05:00:59.049Z,3.04
2023-03-06T05:01:59.076Z,3.04
2023-03-06T05:02:59.054Z,3.04
2023-03-06T05:03:59.092Z,3.04
2023-03-06T05:04:59.119Z,3.04
2023-03-06T05:05:59.169Z,3.05
2023-03-06T05:06:59.194Z,3.05
2023-03-06T05:07:59.231Z,3.05
2023-03-06T05:08:59.264Z,3.05
2023-03-06T05:09:59.305Z,3.05
2023-03-06T05:10:59.362Z,3.05
2023-03-06T05:11:59.383Z,3.06
2023-03-06T05:12:59.418Z,3.05
2023-03-06T05:13:59.462Z,3.01
2023-03-06T05:14:59.498Z,3.01
2023-03-06T05:15:59.532Z,3
2023-03-06T05:16:59.576Z,2.99
2023-03-06T05:17:59.603Z,2.99
2023-03-06T05:18:59.640Z,2.99
2023-03-06T05:19:59.672Z,2.98
2023-03-06T05:20:59.709Z,2.98
2023-03-06T05:21:59.756Z,2.97
2023-03-06T05:22:59.775Z,2.98
2023-03-06T05:23:59.829Z,2.97
2023-03-06T05:24:59.861Z,2.97
2023-03-06T05:25:59.890Z,2.96
2023-03-06T05:26:59.911Z,2.96
2023-03-06T05:27:59.957Z,2.96
2023-03-06T05:28:59.994Z,2.94
2023-03-06T05:30:00.030Z,2.92
2023-03-06T05:31:01.740Z,2.92
2023-03-06T05:32:00.327Z,2.9
2023-03-06T05:33:00.138Z,2.9
2023-03-06T05:34:00.173Z,2.91
2023-03-06T05:35:00.200Z,2.92
2023-03-06T05:36:00.237Z,2.9
2023-03-06T05:37:00.262Z,2.89
2023-03-06T05:38:00.294Z,2.9
2023-03-06T05:39:00.331Z,2.9
2023-03-06T05:40:00.377Z,2.9
2023-03-06T05:41:00.404Z,2.91
2023-03-06T05:42:00.446Z,2.91
2023-03-06T05:43:00.475Z,2.91
2023-03-06T05:44:00.508Z,2.91
2023-03-06T05:45:00.580Z,2.9
2023-03-06T05:46:00.645Z,2.9
2023-03-06T05:47:00.609Z,2.89
2023-03-06T05:48:00.646Z,2.86
2023-03-06T05:49:00.696Z,2.87
2023-03-06T05:50:00.751Z,2.87
2023-03-06T05:51:00.784Z,2.87
2023-03-06T05:52:00.798Z,2.83
2023-03-06T05:53:00.825Z,2.84
2023-03-06T05:54:00.857Z,2.82
2023-03-06T05:55:00.906Z,2.81
2023-03-06T05:56:00.936Z,2.81
2023-03-06T05:57:00.963Z,2.81
2023-03-06T05:58:01.011Z,2.82
2023-03-06T05:59:01.032Z,2.82
2023-03-06T06:00:01.085Z,2.83
2023-03-06T06:01:01.108Z,2.81
2023-03-06T06:02:01.300Z,2.84
2023-03-06T06:03:01.177Z,2.84
2023-03-06T06:04:01.201Z,2.84
2023-03-06T06:05:01.238Z,2.83
2023-03-06T06:06:01.277Z,2.83
2023-03-06T06:07:01.322Z,2.88
2023-03-06T06:08:01.358Z,2.9
2023-03-06T06:09:01.396Z,2.9
2023-03-06T06:10:03.619Z,2.9
2023-03-06T06:11:01.447Z,2.85
2023-03-06T06:12:01.496Z,2.84
2023-03-06T06:13:01.524Z,2.86
2023-03-06T06:14:01.556Z,2.85
2023-03-06T06:15:01.588Z,2.85
2023-03-06T06:16:01.664Z,2.84
2023-03-06T06:17:01.662Z,2.82
2023-03-06T06:18:01.708Z,2.82
2023-03-06T06:19:01.717Z,2.85
2023-03-06T06:20:01.782Z,2.84
2023-03-06T06:21:01.781Z,2.84
2023-03-06T06:22:01.826Z,2.84
2023-03-06T06:23:01.860Z,2.84
2023-03-06T06:24:01.888Z,2.84
2023-03-06T06:25:01.949Z,2.85
2023-03-06T06:26:01.974Z,2.88
2023-03-06T06:27:03.954Z,2.88
2023-03-06T06:28:02.042Z,2.89
2023-03-06T06:29:02.071Z,2.9
2023-03-06T06:30:02.108Z,2.89
2023-03-06T06:31:02.180Z,2.9
2023-03-06T06:32:02.247Z,2.89
2023-03-06T06:33:02.232Z,2.89
2023-03-06T06:34:02.271Z,2.89
2023-03-06T06:35:02.311Z,2.89
2023-03-06T06:36:02.338Z,2.89
2023-03-06T06:37:02.385Z,2.89
2023-03-06T06:38:02.404Z,2.87
2023-03-06T06:39:02.455Z,2.88
2023-03-06T06:40:02.473Z,2.88
2023-03-06T06:41:31.043Z,2.88
2023-03-06T06:42:15.433Z,2.88
2023-03-06T06:43:02.573Z,2.88
2023-03-06T06:44:02.613Z,2.89
2023-03-06T06:45:02.636Z,2.91
2023-03-06T06:46:31.503Z,2.92
2023-03-06T06:47:22.336Z,2.92
2023-03-06T06:48:02.790Z,2.93
2023-03-06T06:49:02.838Z,2.93
2023-03-06T06:50:02.809Z,2.93
2023-03-06T06:51:02.843Z,2.93
2023-03-06T06:52:02.888Z,2.92
2023-03-06T06:53:02.913Z,2.93
2023-03-06T06:54:02.951Z,2.96
2023-03-06T06:55:02.994Z,2.97
2023-03-06T06:56:03.029Z,2.97
2023-03-06T06:57:03.064Z,2.93
2023-03-06T06:58:03.128Z,2.94
2023-03-06T06:59:15.721Z,2.94
2023-03-06T07:00:03.155Z,2.94
2023-03-06T07:01:03.212Z,2.93
2023-03-06T07:02:03.232Z,2.92
2023-03-06T07:03:03.267Z,2.94
2023-03-06T07:04:03.366Z,2.94
2023-03-06T07:05:05.250Z,2.93
2023-03-06T07:06:03.378Z,2.92
2023-03-06T07:07:03.409Z,2.91
2023-03-06T07:08:03.436Z,2.91
2023-03-06T07:09:03.477Z,2.9
2023-03-06T07:10:03.528Z,2.9
2023-03-06T07:11:03.556Z,2.89
2023-03-06T07:12:03.589Z,2.89
2023-03-06T07:13:03.630Z,2.89
2023-03-06T07:14:03.663Z,2.89
2023-03-06T07:15:03.711Z,2.89
2023-03-06T07:16:03.820Z,2.89
2023-03-06T07:17:03.770Z,2.89
2023-03-06T07:18:03.793Z,2.9
2023-03-06T07:19:03.828Z,2.92
2023-03-06T07:20:03.862Z,2.92
2023-03-06T07:21:03.892Z,2.91
2023-03-06T07:22:03.926Z,2.91
2023-03-06T07:23:03.964Z,2.93
2023-03-06T07:24:04.004Z,2.93
2023-03-06T07:25:04.039Z,2.93
2023-03-06T07:26:04.066Z,2.94
2023-03-06T07:27:04.105Z,2.94
2023-03-06T07:28:04.148Z,2.94
2023-03-06T07:29:04.207Z,2.95
2023-03-06T07:30:04.224Z,2.95
2023-03-06T07:31:04.288Z,2.94
2023-03-06T07:32:04.386Z,2.99
2023-03-06T07:33:04.326Z,2.99
2023-03-06T07:34:05.102Z,2.98
2023-03-06T07:35:21.996Z,3
2023-03-06T07:36:04.463Z,2.99
2023-03-06T07:37:04.467Z,2.98
2023-03-06T07:38:04.523Z,3
2023-03-06T07:39:04.536Z,3.01
2023-03-06T07:40:04.620Z,2.99
2023-03-06T07:41:04.595Z,3.01
2023-03-06T07:42:04.626Z,3.03
2023-03-06T07:43:17.133Z,3.04
2023-03-06T07:44:04.705Z,3.03
2023-03-06T07:45:04.763Z,3.02
2023-03-06T07:46:04.837Z,3.04
2023-03-06T07:47:04.798Z,3.04
2023-03-06T07:48:05.671Z,3.03
2023-03-06T07:49:04.859Z,3.05
2023-03-06T07:50:04.895Z,3.04
2023-03-06T07:51:04.922Z,3.04
2023-03-06T07:52:04.953Z,3.06
2023-03-06T07:53:04.977Z,3.05
2023-03-06T07:54:05.010Z,3.04
2023-03-06T07:55:05.042Z,3.07
2023-03-06T07:56:05.073Z,3.08
2023-03-06T07:57:05.120Z,3.09
2023-03-06T07:58:05.141Z,3.07
2023-03-06T07:59:05.189Z,3.08
2023-03-06T08:00:05.204Z,3.07
2023-03-06T08:01:05.250Z,3.03
2023-03-06T08:02:05.275Z,3.09
2023-03-06T08:03:05.375Z,3.09
2023-03-06T08:04:05.481Z,3.09
2023-03-06T08:05:05.381Z,3.1
2023-03-06T08:06:05.426Z,3.09
2023-03-06T08:07:05.431Z,3.12
2023-03-06T08:08:05.468Z,3.1
2023-03-06T08:09:05.501Z,3.1
2023-03-06T08:10:05.531Z,3.1
2023-03-06T08:11:05.564Z,3.12
2023-03-06T08:12:05.601Z,3.13
2023-03-06T08:13:05.621Z,3.15
2023-03-06T08:14:05.653Z,3.14
2023-03-06T08:15:05.689Z,3.15
2023-03-06T08:16:05.785Z,3.14
2023-03-06T08:17:05.753Z,3.14
2023-03-06T08:18:05.790Z,3.15
2023-03-06T08:19:05.821Z,3.15
2023-03-06T08:20:05.847Z,3.16
2023-03-06T08:21:05.902Z,3.16
2023-03-06T08:22:05.934Z,3.15
2023-03-06T08:23:05.942Z,3.14
2023-03-06T08:24:07.465Z,3.17
2023-03-06T08:25:06.009Z,3.19
2023-03-06T08:26:06.046Z,3.18
2023-03-06T08:27:06.085Z,3.17
2023-03-06T08:28:07.139Z,3.17
2023-03-06T08:29:06.196Z,3.18
2023-03-06T08:30:06.176Z,3.14
2023-03-06T08:31:06.268Z,3.15
2023-03-06T08:32:06.385Z,3.19
2023-03-06T08:33:06.282Z,3.2
2023-03-06T08:34:06.328Z,3.15
2023-03-06T08:35:06.357Z,3.15
2023-03-06T08:36:06.396Z,3.15
2023-03-06T08:37:06.452Z,3.16
2023-03-06T08:38:06.453Z,3.18
2023-03-06T08:39:06.486Z,3.18
2023-03-06T08:40:06.522Z,3.17
2023-03-06T08:41:06.554Z,3.16
2023-03-06T08:42:06.577Z,3.17
2023-03-06T08:43:06.621Z,3.12
2023-03-06T08:44:06.661Z,3.12
2023-03-06T08:45:06.738Z,3.13
2023-03-06T08:46:06.764Z,3.14
2023-03-06T08:47:06.745Z,3.14
2023-03-06T08:48:06.794Z,3.16
2023-03-06T08:49:06.811Z,3.13
2023-03-06T08:50:06.862Z,3.16
2023-03-06T08:51:06.887Z,3.13
2023-03-06T08:52:06.921Z,3.14
2023-03-06T08:53:06.950Z,3.13
2023-03-06T08:54:06.991Z,3.11
2023-03-06T08:55:07.134Z,3.13
2023-03-06T08:56:07.061Z,3.13
2023-03-06T08:57:07.193Z,3.14
2023-03-06T08:58:07.139Z,3.12
2023-03-06T08:59:07.172Z,3.11
2023-03-06T09:00:07.212Z,3.12
2023-03-06T09:01:07.447Z,3.1
2023-03-06T09:02:07.389Z,3.11
2023-03-06T09:03:07.305Z,3.11
2023-03-06T09:04:07.348Z,3.09
2023-03-06T09:05:07.386Z,3.08
2023-03-06T09:06:07.416Z,3.06
2023-03-06T09:07:07.439Z,3.08
2023-03-06T09:08:07.477Z,3.08
2023-03-06T09:09:07.523Z,3.07
2023-03-06T09:10:07.544Z,3.07
2023-03-06T09:11:07.579Z,3.07
2023-03-06T09:12:07.613Z,3.08
2023-03-06T09:13:07.643Z,3.07
2023-03-06T09:14:07.681Z,3.06
2023-03-06T09:15:07.727Z,3.07
2023-03-06T09:16:07.761Z,3.08
2023-03-06T09:17:07.797Z,3.1
2023-03-06T09:18:07.882Z,3.09
2023-03-06T09:19:07.865Z,3.1
2023-03-06T09:20:10.192Z,3.09
2023-03-06T09:21:07.948Z,3.08
2023-03-06T09:22:07.973Z,3.11
2023-03-06T09:23:08.022Z,3.1
2023-03-06T09:24:08.038Z,3.08
2023-03-06T09:25:08.072Z,3.07
2023-03-06T09:26:08.108Z,3.08
2023-03-06T09:27:08.150Z,3.1
2023-03-06T09:28:11.662Z,3.1
2023-03-06T09:29:08.207Z,3.09
2023-03-06T09:30:08.268Z,3.1
2023-03-06T09:31:08.326Z,3.1
2023-03-06T09:32:09.261Z,3.07
2023-03-06T09:33:08.361Z,3.05
2023-03-06T09:34:08.414Z,3.06
2023-03-06T09:35:08.427Z,3.07
2023-03-06T09:36:08.473Z,3.06
2023-03-06T09:37:08.505Z,3.06
2023-03-06T09:38:08.555Z,3.06
2023-03-06T09:39:08.574Z,3.04
2023-03-06T09:40:08.619Z,3.03
2023-03-06T09:41:08.694Z,3.08
2023-03-06T09:42:08.683Z,3.08
2023-03-06T09:43:08.744Z,3.06
2023-03-06T09:44:08.780Z,3.1
2023-03-06T09:45:08.788Z,3.05
2023-03-06T09:46:08.858Z,3.01
2023-03-06T09:47:08.851Z,2.98
2023-03-06T09:48:08.887Z,3
2023-03-06T09:49:08.932Z,3.03
2023-03-06T09:50:08.968Z,3.04
2023-03-06T09:51:09.006Z,3.04
2023-03-06T09:52:09.026Z,2.99
2023-03-06T09:53:09.067Z,2.97
2023-03-06T09:54:09.096Z,2.99
2023-03-06T09:55:09.126Z,2.97
2023-03-06T09:56:09.175Z,2.99
2023-03-06T09:57:09.204Z,2.98
2023-03-06T09:58:09.251Z,3
2023-03-06T09:59:09.286Z,3
2023-03-06T10:00:09.316Z,3
2023-03-06T10:01:09.348Z,3.04
2023-03-06T10:02:09.537Z,3.05
2023-03-06T10:03:09.538Z,3.03
2023-03-06T10:04:09.455Z,3.01
2023-03-06T10:05:09.518Z,2.99
2023-03-06T10:06:09.524Z,2.99
2023-03-06T10:07:09.566Z,3
2023-03-06T10:08:09.584Z,2.99
2023-03-06T10:09:09.628Z,3
2023-03-06T10:10:09.656Z,2.97
2023-03-06T10:11:09.685Z,2.98
2023-03-06T10:12:09.708Z,2.98
2023-03-06T10:13:09.750Z,2.96
2023-03-06T10:14:09.784Z,2.96
2023-03-06T10:15:09.842Z,2.95
2023-03-06T10:16:09.937Z,2.95
2023-03-06T10:17:09.884Z,2.97
2023-03-06T10:18:09.938Z,2.97
2023-03-06T10:19:09.973Z,2.97
2023-03-06T10:20:10.009Z,2.99
2023-03-06T10:21:19.028Z,3
2023-03-06T10:22:10.061Z,3
2023-03-06T10:23:11.175Z,3.04
2023-03-06T10:24:10.113Z,3.02
2023-03-06T10:25:10.163Z,3.02
2023-03-06T10:26:10.248Z,3
2023-03-06T10:27:10.355Z,2.98
2023-03-06T10:28:10.251Z,2.96
2023-03-06T10:29:10.294Z,2.95
2023-03-06T10:30:10.322Z,2.95
2023-03-06T10:31:10.635Z,3.01
2023-03-06T10:32:10.460Z,3.03
2023-03-06T10:33:10.448Z,3.06
2023-03-06T10:34:10.461Z,3.05
2023-03-06T10:35:10.502Z,3.03
2023-03-06T10:36:10.533Z,3.06
2023-03-06T10:37:10.581Z,3.05
2023-03-06T10:38:10.604Z,3.04
2023-03-06T10:39:10.633Z,3.09
2023-03-06T10:40:10.672Z,3.12
2023-03-06T10:41:10.700Z,3.12
2023-03-06T10:42:10.749Z,3.1
2023-03-06T10:43:12.114Z,3.1
2023-03-06T10:44:10.817Z,3.11
2023-03-06T10:45:10.838Z,3.16
2023-03-06T10:46:10.901Z,3.12
2023-03-06T10:47:10.905Z,3.09
2023-03-06T10:48:10.938Z,3.08
2023-03-06T10:49:10.968Z,3.07
2023-03-06T10:50:10.991Z,3.11
2023-03-06T10:51:18.058Z,3.12
2023-03-06T10:52:11.065Z,3.12
2023-03-06T10:53:11.097Z,3.13
2023-03-06T10:54:11.127Z,3.14
2023-03-06T10:55:12.629Z,3.12
2023-03-06T10:56:11.197Z,3.14
2023-03-06T10:57:11.219Z,3.12
2023-03-06T10:58:11.256Z,3.15
2023-03-06T10:59:11.288Z,3.15
2023-03-06T11:00:11.329Z,3.19
2023-03-06T11:01:11.369Z,3.22
2023-03-06T11:02:11.392Z,3.23
2023-03-06T11:03:11.423Z,3.21
2023-03-06T11:04:11.465Z,3.2
2023-03-06T11:05:11.492Z,3.17
2023-03-06T11:06:12.939Z,3.15
2023-03-06T11:07:11.557Z,3.13
2023-03-06T11:08:11.596Z,3.13
2023-03-06T11:09:11.619Z,3.11
2023-03-06T11:10:11.661Z,3.09
2023-03-06T11:11:11.708Z,3.09
2023-03-06T11:12:11.736Z,3.09
2023-03-06T11:13:11.765Z,3.09
2023-03-06T11:14:11.786Z,3.15
2023-03-06T11:15:11.825Z,3.13
2023-03-06T11:16:11.907Z,3.1
2023-03-06T11:17:11.891Z,3.11
2023-03-06T11:18:11.926Z,3.07
2023-03-06T11:19:11.958Z,3.07
2023-03-06T11:20:12.000Z,3.07
2023-03-06T11:21:12.030Z,3.09
2023-03-06T11:22:12.056Z,3.1
2023-03-06T11:23:12.092Z,3.11
2023-03-06T11:24:12.118Z,3.1
2023-03-06T11:25:12.153Z,3.11
2023-03-06T11:26:12.191Z,3.07
2023-03-06T11:27:12.228Z,3.05
2023-03-06T11:28:12.257Z,3.09
2023-03-06T11:29:12.372Z,3.07
2023-03-06T11:30:12.317Z,3.08
2023-03-06T11:31:12.376Z,3.11
2023-03-06T11:32:12.464Z,3.14
2023-03-06T11:33:12.425Z,3.08
2023-03-06T11:34:12.452Z,3.11
2023-03-06T11:35:12.500Z,3.1
2023-03-06T11:36:12.521Z,3.09
2023-03-06T11:37:12.567Z,3.12
2023-03-06T11:38:12.588Z,3.09
2023-03-06T11:39:14.542Z,3.1
2023-03-06T11:40:12.653Z,3.16
2023-03-06T11:41:12.706Z,3.15
2023-03-06T11:42:12.730Z,3.13
2023-03-06T11:43:12.756Z,3.19
2023-03-06T11:44:12.797Z,3.18
2023-03-06T11:45:12.816Z,3.17
2023-03-06T11:46:12.917Z,3.13
2023-03-06T11:47:12.900Z,3.14
2023-03-06T11:48:12.927Z,3.17
2023-03-06T11:49:12.992Z,3.18
2023-03-06T11:50:12.997Z,3.19
2023-03-06T11:51:13.029Z,3.21
2023-03-06T11:52:13.056Z,3.18
2023-03-06T11:53:13.101Z,3.17
2023-03-06T11:54:13.138Z,3.14
2023-03-06T11:55:13.172Z,3.2
2023-03-06T11:56:13.210Z,3.22
2023-03-06T11:57:13.253Z,3.17
2023-03-06T11:58:13.279Z,3.23
2023-03-06T11:59:13.314Z,3.23
2023-03-06T12:00:13.332Z,3.21
2023-03-06T12:01:13.385Z,3.29
2023-03-06T12:02:13.438Z,3.25
2023-03-06T12:03:13.443Z,3.24
2023-03-06T12:04:13.473Z,3.26
2023-03-06T12:05:13.586Z,3.23
2023-03-06T12:06:13.561Z,3.22
2023-03-06T12:07:13.595Z,3.21
2023-03-06T12:08:13.631Z,3.2
2023-03-06T12:09:13.670Z,3.16
2023-03-06T12:10:13.713Z,3.22
2023-03-06T12:11:13.750Z,3.27
2023-03-06T12:12:13.774Z,3.3
2023-03-06T12:13:13.809Z,3.29
2023-03-06T12:14:13.851Z,3.29
2023-03-06T12:15:13.878Z,3.27
2023-03-06T12:16:13.936Z,3.26
2023-03-06T12:17:13.949Z,3.24
2023-03-06T12:18:13.978Z,3.28
2023-03-06T12:19:14.021Z,3.25
2023-03-06T12:20:14.064Z,3.27
2023-03-06T12:21:14.135Z,3.32
2023-03-06T12:22:14.125Z,3.3
2023-03-06T12:23:15.777Z,3.32
2023-03-06T12:24:14.205Z,3.29
2023-03-06T12:25:14.236Z,3.31
2023-03-06T12:26:14.293Z,3.31
2023-03-06T12:27:14.297Z,3.32
2023-03-06T12:28:14.326Z,3.35
2023-03-06T12:29:14.375Z,3.37
2023-03-06T12:30:14.401Z,3.39
2023-03-06T12:31:14.432Z,3.42
2023-03-06T12:32:14.807Z,3.44
2023-03-06T12:33:14.509Z,3.46
2023-03-06T12:34:14.549Z,3.47
2023-03-06T12:35:14.642Z,3.48
2023-03-06T12:36:14.623Z,3.52
2023-03-06T12:37:14.661Z,3.57
2023-03-06T12:38:14.685Z,3.52
2023-03-06T12:39:14.782Z,3.53
2023-03-06T12:40:14.902Z,3.58
2023-03-06T12:41:14.803Z,3.57
2023-03-06T12:42:22.896Z,3.6
2023-03-06T12:43:14.869Z,3.6
2023-03-06T12:44:14.901Z,3.61
2023-03-06T12:45:14.993Z,3.64
2023-03-06T12:46:14.995Z,3.71
2023-03-06T12:47:15.000Z,3.71
2023-03-06T12:48:15.039Z,3.74
2023-03-06T12:49:22.995Z,3.73
2023-03-06T12:50:15.105Z,3.8
2023-03-06T12:51:15.173Z,3.8
2023-03-06T12:52:18.542Z,3.77
2023-03-06T12:53:15.201Z,3.79
2023-03-06T12:54:15.267Z,3.79
2023-03-06T12:55:15.283Z,3.74
2023-03-06T12:56:15.360Z,3.79
2023-03-06T12:57:15.362Z,3.75
2023-03-06T12:58:15.388Z,3.77
2023-03-06T12:59:15.428Z,3.81
2023-03-06T13:00:15.452Z,3.78
2023-03-06T13:01:15.572Z,3.8
2023-03-06T13:02:15.562Z,3.86
2023-03-06T13:03:15.572Z,3.89
2023-03-06T13:04:15.631Z,3.86
2023-03-06T13:05:15.637Z,3.93
2023-03-06T13:06:15.667Z,3.91
2023-03-06T13:07:15.693Z,3.98
2023-03-06T13:08:15.742Z,3.92
2023-03-06T13:09:15.768Z,4.04
2023-03-06T13:10:15.794Z,4.08
2023-03-06T13:11:15.885Z,4.08
2023-03-06T13:12:15.861Z,4.08
2023-03-06T13:13:15.896Z,4.07
2023-03-06T13:14:15.933Z,4.01
2023-03-06T13:15:15.970Z,3.99
2023-03-06T13:16:16.060Z,4.02
2023-03-06T13:17:16.028Z,4.02
2023-03-06T13:18:16.050Z,3.97
2023-03-06T13:19:16.089Z,4.07
2023-03-06T13:20:16.137Z,3.98
2023-03-06T13:21:16.207Z,4.12
2023-03-06T13:22:16.201Z,4.24
2023-03-06T13:23:16.227Z,4.15